Airport View

Enter AWOS ICAO identifier for current METAR.

ex. KFNL

KHIO 251653Z 07012G18KT 10SM CLR 04/M09 A3052 RMK AO2 SLP336 T00441089

25 Oct 2020 17:32

Phone: 503-640-2984

Other Area AWOS: KVUO - KSPB - KPDX - KUAO

TAF KHIO 251120Z 2512/2612 07010G20KT P6SM SKC FM260300 09011KT P6SM FEW250